sensor_id;sensor_type;location;lat;lon;timestamp;temperature;humidity
16625;DHT22;8426;48.496;9.098;2023-09-07T06:29:41;12.90;99.90
16625;DHT22;8426;48.496;9.098;2023-09-07T06:34:46;13.10;99.90
16625;DHT22;8426;48.496;9.098;2023-09-07T06:39:49;13.70;99.90
16625;DHT22;8426;48.496;9.098;2023-09-07T06:44:54;18.10;99.90
16625;DHT22;8426;48.496;9.098;2023-09-07T06:49:57;22.90;99.90
16625;DHT22;8426;48.496;9.098;2023-09-07T06:55:00;26.00;99.90
16625;DHT22;8426;48.496;9.098;2023-09-07T07:00:07;27.70;99.90
16625;DHT22;8426;48.496;9.098;2023-09-07T07:05:10;29.40;99.90
16625;DHT22;8426;48.496;9.098;2023-09-07T07:10:14;30.50;99.90
16625;DHT22;8426;48.496;9.098;2023-09-07T07:15:19;30.20;98.80
16625;DHT22;8426;48.496;9.098;2023-09-07T07:20:23;30.00;99.10
16625;DHT22;8426;48.496;9.098;2023-09-07T07:25:27;29.00;99.50
16625;DHT22;8426;48.496;9.098;2023-09-07T07:30:31;26.90;99.90
16625;DHT22;8426;48.496;9.098;2023-09-07T07:35:35;24.90;99.90
16625;DHT22;8426;48.496;9.098;2023-09-07T07:40:39;24.50;99.90
16625;DHT22;8426;48.496;9.098;2023-09-07T07:45:43;26.40;99.90
16625;DHT22;8426;48.496;9.098;2023-09-07T07:50:47;28.90;99.90
16625;DHT22;8426;48.496;9.098;2023-09-07T07:55:50;30.00;98.90
16625;DHT22;8426;48.496;9.098;2023-09-07T08:00:55;29.20;99.70
16625;DHT22;8426;48.496;9.098;2023-09-07T08:06:00;28.30;99.90
16625;DHT22;8426;48.496;9.098;2023-09-07T08:11:05;28.20;99.90
16625;DHT22;8426;48.496;9.098;2023-09-07T08:16:10;29.50;99.90
16625;DHT22;8426;48.496;9.098;2023-09-07T08:21:15;30.70;98.70
16625;DHT22;8426;48.496;9.098;2023-09-07T08:26:20;32.10;97.00
16625;DHT22;8426;48.496;9.098;2023-09-07T08:31:25;31.90;96.10
16625;DHT22;8426;48.496;9.098;2023-09-07T08:36:28;31.80;95.70
16625;DHT22;8426;48.496;9.098;2023-09-07T08:41:36;31.30;96.10
16625;DHT22;8426;48.496;9.098;2023-09-07T08:47:04;31.30;95.90
16625;DHT22;8426;48.496;9.098;2023-09-07T08:52:08;31.90;95.20
16625;DHT22;8426;48.496;9.098;2023-09-07T08:57:13;31.80;95.60
16625;DHT22;8426;48.496;9.098;2023-09-07T09:02:19;31.90;95.60
16625;DHT22;8426;48.496;9.098;2023-09-07T09:07:23;30.90;96.60
16625;DHT22;8426;48.496;9.098;2023-09-07T09:12:26;31.20;96.10
16625;DHT22;8426;48.496;9.098;2023-09-07T09:17:31;30.90;96.80
16625;DHT22;8426;48.496;9.098;2023-09-07T09:22:34;30.90;96.20
16625;DHT22;8426;48.496;9.098;2023-09-07T09:27:38;31.00;97.10
16625;DHT22;8426;48.496;9.098;2023-09-07T09:32:43;31.00;96.90
16625;DHT22;8426;48.496;9.098;2023-09-07T09:37:47;30.60;97.10
16625;DHT22;8426;48.496;9.098;2023-09-07T09:42:52;31.30;95.90
16625;DHT22;8426;48.496;9.098;2023-09-07T09:47:59;31.80;96.60
16625;DHT22;8426;48.496;9.098;2023-09-07T09:53:04;30.10;98.10
16625;DHT22;8426;48.496;9.098;2023-09-07T09:58:08;30.10;97.60
16625;DHT22;8426;48.496;9.098;2023-09-07T10:03:16;29.40;98.20
16625;DHT22;8426;48.496;9.098;2023-09-07T10:08:21;27.80;99.90
16625;DHT22;8426;48.496;9.098;2023-09-07T10:13:32;28.20;99.90
16625;DHT22;8426;48.496;9.098;2023-09-07T10:18:38;27.40;99.90
16625;DHT22;8426;48.496;9.098;2023-09-07T10:23:44;27.40;99.90
16625;DHT22;8426;48.496;9.098;2023-09-07T10:28:48;27.30;99.90
16625;DHT22;8426;48.496;9.098;2023-09-07T10:34:12;27.10;99.90
16625;DHT22;8426;48.496;9.098;2023-09-07T10:39:16;27.00;99.90
16625;DHT22;8426;48.496;9.098;2023-09-07T10:44:25;27.30;99.90
16625;DHT22;8426;48.496;9.098;2023-09-07T10:49:30;27.20;99.90
16625;DHT22;8426;48.496;9.098;2023-09-07T10:54:34;27.50;99.90
16625;DHT22;8426;48.496;9.098;2023-09-07T10:59:37;27.80;99.90
16625;DHT22;8426;48.496;9.098;2023-09-07T11:04:42;27.10;99.90
16625;DHT22;8426;48.496;9.098;2023-09-07T11:09:46;27.50;99.90
16625;DHT22;8426;48.496;9.098;2023-09-07T11:14:54;27.60;99.90
16625;DHT22;8426;48.496;9.098;2023-09-07T11:20:03;27.70;99.90
16625;DHT22;8426;48.496;9.098;2023-09-07T11:25:09;27.70;99.90
16625;DHT22;8426;48.496;9.098;2023-09-07T11:30:14;27.50;99.90
16625;DHT22;8426;48.496;9.098;2023-09-07T11:35:18;27.40;99.90
16625;DHT22;8426;48.496;9.098;2023-09-07T11:40:23;28.10;99.90
16625;DHT22;8426;48.496;9.098;2023-09-07T11:45:28;28.10;99.90
16625;DHT22;8426;48.496;9.098;2023-09-07T11:50:33;27.90;99.90
16625;DHT22;8426;48.496;9.098;2023-09-07T11:55:36;28.10;99.90
16625;DHT22;8426;48.496;9.098;2023-09-07T12:00:41;28.50;99.90
16625;DHT22;8426;48.496;9.098;2023-09-07T12:05:46;28.40;99.90
16625;DHT22;8426;48.496;9.098;2023-09-07T12:10:49;28.30;99.90
16625;DHT22;8426;48.496;9.098;2023-09-07T12:15:57;28.20;99.90
16625;DHT22;8426;48.496;9.098;2023-09-07T12:21:01;28.00;99.90
16625;DHT22;8426;48.496;9.098;2023-09-07T12:26:05;28.40;99.90
16625;DHT22;8426;48.496;9.098;2023-09-07T12:31:10;27.80;99.90
16625;DHT22;8426;48.496;9.098;2023-09-07T12:36:15;28.00;99.90
16625;DHT22;8426;48.496;9.098;2023-09-07T12:41:19;28.20;99.90
16625;DHT22;8426;48.496;9.098;2023-09-07T12:46:23;28.30;99.90
16625;DHT22;8426;48.496;9.098;2023-09-07T12:51:28;28.40;99.90
16625;DHT22;8426;48.496;9.098;2023-09-07T12:56:31;28.60;99.90
16625;DHT22;8426;48.496;9.098;2023-09-07T13:01:35;28.60;99.90
16625;DHT22;8426;48.496;9.098;2023-09-07T13:06:40;28.50;99.90
16625;DHT22;8426;48.496;9.098;2023-09-07T13:11:43;28.60;99.90
16625;DHT22;8426;48.496;9.098;2023-09-07T13:16:47;28.60;99.90
16625;DHT22;8426;48.496;9.098;2023-09-07T13:21:53;28.60;99.90
16625;DHT22;8426;48.496;9.098;2023-09-07T13:26:57;28.40;99.90
16625;DHT22;8426;48.496;9.098;2023-09-07T13:32:00;28.60;99.90
16625;DHT22;8426;48.496;9.098;2023-09-07T13:37:05;28.40;99.90
16625;DHT22;8426;48.496;9.098;2023-09-07T13:42:08;28.70;99.90
16625;DHT22;8426;48.496;9.098;2023-09-07T13:47:12;28.80;99.90
16625;DHT22;8426;48.496;9.098;2023-09-07T13:52:17;29.10;99.90
16625;DHT22;8426;48.496;9.098;2023-09-07T13:57:20;29.20;99.90
16625;DHT22;8426;48.496;9.098;2023-09-07T14:02:25;29.20;99.90
16625;DHT22;8426;48.496;9.098;2023-09-07T14:07:31;29.00;99.90
16625;DHT22;8426;48.496;9.098;2023-09-07T14:12:35;28.90;99.90
16625;DHT22;8426;48.496;9.098;2023-09-07T14:17:41;28.90;99.90
16625;DHT22;8426;48.496;9.098;2023-09-07T14:22:45;28.70;99.90
16625;DHT22;8426;48.496;9.098;2023-09-07T14:27:49;28.70;99.90
16625;DHT22;8426;48.496;9.098;2023-09-07T14:32:53;28.60;99.90
16625;DHT22;8426;48.496;9.098;2023-09-07T14:37:58;28.60;99.90
16625;DHT22;8426;48.496;9.098;2023-09-07T14:43:04;28.50;99.90
16625;DHT22;8426;48.496;9.098;2023-09-07T14:48:07;28.30;99.90
16625;DHT22;8426;48.496;9.098;2023-09-07T14:53:14;28.40;99.90
16625;DHT22;8426;48.496;9.098;2023-09-07T14:58:17;28.30;99.90
16625;DHT22;8426;48.496;9.098;2023-09-07T15:03:26;28.40;99.90
16625;DHT22;8426;48.496;9.098;2023-09-07T15:08:31;28.30;99.90
16625;DHT22;8426;48.496;9.098;2023-09-07T15:13:36;28.30;99.90
16625;DHT22;8426;48.496;9.098;2023-09-07T15:18:42;28.30;99.90
16625;DHT22;8426;48.496;9.098;2023-09-07T15:23:48;28.30;99.90
16625;DHT22;8426;48.496;9.098;2023-09-07T15:28:51;28.10;99.90
16625;DHT22;8426;48.496;9.098;2023-09-07T15:33:58;28.10;99.90
16625;DHT22;8426;48.496;9.098;2023-09-07T15:39:05;28.10;99.90
16625;DHT22;8426;48.496;9.098;2023-09-07T15:44:08;27.90;99.90
16625;DHT22;8426;48.496;9.098;2023-09-07T15:49:12;27.80;99.90
16625;DHT22;8426;48.496;9.098;2023-09-07T15:54:16;27.80;99.90
16625;DHT22;8426;48.496;9.098;2023-09-07T15:59:23;27.80;99.90
16625;DHT22;8426;48.496;9.098;2023-09-07T16:04:34;27.70;99.90
16625;DHT22;8426;48.496;9.098;2023-09-07T16:09:47;27.70;99.90
16625;DHT22;8426;48.496;9.098;2023-09-07T16:14:58;27.50;99.90
16625;DHT22;8426;48.496;9.098;2023-09-07T16:20:04;27.40;99.90
16625;DHT22;8426;48.496;9.098;2023-09-07T16:25:11;27.30;99.90
16625;DHT22;8426;48.496;9.098;2023-09-07T16:30:17;27.20;99.90
16625;DHT22;8426;48.496;9.098;2023-09-07T16:35:23;27.00;99.90
16625;DHT22;8426;48.496;9.098;2023-09-07T16:40:28;26.80;99.90
16625;DHT22;8426;48.496;9.098;2023-09-07T16:45:32;26.60;99.90
16625;DHT22;8426;48.496;9.098;2023-09-07T16:50:35;26.50;99.90
16625;DHT22;8426;48.496;9.098;2023-09-07T16:55:43;26.40;99.90
16625;DHT22;8426;48.496;9.098;2023-09-07T17:00:46;26.30;99.90
16625;DHT22;8426;48.496;9.098;2023-09-07T17:05:50;26.00;99.90
16625;DHT22;8426;48.496;9.098;2023-09-07T17:10:57;25.80;99.90
16625;DHT22;8426;48.496;9.098;2023-09-07T17:16:01;25.70;99.90
16625;DHT22;8426;48.496;9.098;2023-09-07T17:21:05;25.50;99.90
16625;DHT22;8426;48.496;9.098;2023-09-07T17:26:09;25.30;99.90
16625;DHT22;8426;48.496;9.098;2023-09-07T17:31:13;25.10;99.90
